createdAt,value
2018-04-29T00:01:37.680Z,12.00
2018-04-29T00:04:05.951Z,11.90
2018-04-29T00:06:34.961Z,11.50
2018-04-29T00:09:03.797Z,11.50
2018-04-29T00:11:32.047Z,11.50
2018-04-29T00:14:01.051Z,11.40
2018-04-29T00:16:29.313Z,11.30
2018-04-29T00:18:57.552Z,11.40
2018-04-29T00:21:25.839Z,11.30
2018-04-29T00:23:54.132Z,11.60
2018-04-29T00:26:22.387Z,11.60
2018-04-29T00:28:50.644Z,11.60
2018-04-29T00:31:19.727Z,11.60
2018-04-29T00:33:47.989Z,11.50
2018-04-29T00:36:17.772Z,11.40
2018-04-29T00:38:46.402Z,11.40
2018-04-29T00:41:14.614Z,11.40
2018-04-29T00:43:42.844Z,11.80
2018-04-29T00:46:11.852Z,11.80
2018-04-29T00:48:40.876Z,11.70
2018-04-29T00:51:09.132Z,11.70
2018-04-29T00:53:38.131Z,11.30
2018-04-29T00:56:07.152Z,11.30
2018-04-29T00:58:35.388Z,11.30
2018-04-29T01:01:04.239Z,11.20
2018-04-29T01:03:32.481Z,11.10
2018-04-29T01:06:01.572Z,11.00
2018-04-29T01:08:29.794Z,11.00
2018-04-29T01:10:58.170Z,11.00
2018-04-29T01:13:26.422Z,11.00
2018-04-29T01:15:55.445Z,11.00
2018-04-29T01:18:23.726Z,11.00
2018-04-29T01:20:52.561Z,11.00
2018-04-29T01:23:21.608Z,10.80
2018-04-29T01:25:50.628Z,10.90
2018-04-29T01:28:18.948Z,10.90
2018-04-29T01:30:47.188Z,11.00
2018-04-29T01:33:15.928Z,11.10
2018-04-29T01:35:44.204Z,11.00
2018-04-29T01:38:12.528Z,10.90
2018-04-29T01:40:40.763Z,10.90
2018-04-29T01:43:09.044Z,11.10
2018-04-29T01:45:38.276Z,11.00
2018-04-29T01:48:07.916Z,11.60
2018-04-29T01:50:36.136Z,11.60
2018-04-29T01:53:04.391Z,11.40
2018-04-29T01:55:32.623Z,11.30
2018-04-29T01:58:01.648Z,11.90
2018-04-29T02:00:29.882Z,11.90
2018-04-29T02:02:58.142Z,11.70
2018-04-29T02:05:26.380Z,11.40
2018-04-29T02:07:55.856Z,11.30
2018-04-29T02:10:24.093Z,11.30
2018-04-29T02:12:52.431Z,11.10
2018-04-29T02:15:21.524Z,10.90
2018-04-29T02:17:49.791Z,10.90
2018-04-29T02:20:18.018Z,10.90
2018-04-29T02:22:47.073Z,11.20
2018-04-29T02:25:15.297Z,11.20
2018-04-29T02:27:44.355Z,11.10
2018-04-29T02:30:12.609Z,11.10
2018-04-29T02:32:40.863Z,10.90
2018-04-29T02:35:09.100Z,10.90
2018-04-29T02:37:37.371Z,10.80
2018-04-29T02:40:05.599Z,10.90
2018-04-29T02:42:34.616Z,10.80
2018-04-29T02:45:02.889Z,10.80
2018-04-29T02:47:31.148Z,11.10
2018-04-29T02:50:00.155Z,11.20
2018-04-29T02:52:29.217Z,11.50
2018-04-29T02:54:57.456Z,11.50
2018-04-29T02:57:26.316Z,11.60
2018-04-29T02:59:54.558Z,11.50
2018-04-29T03:02:22.884Z,11.50
2018-04-29T03:04:51.884Z,10.70
2018-04-29T03:07:20.956Z,10.80
2018-04-29T03:09:49.914Z,10.80
2018-04-29T03:12:18.664Z,10.90
2018-04-29T03:14:46.913Z,11.10
2018-04-29T03:17:15.284Z,11.10
2018-04-29T03:19:43.512Z,11.20
2018-04-29T03:22:11.744Z,11.60
2018-04-29T03:24:40.872Z,11.80
2018-04-29T03:27:09.112Z,11.80
2018-04-29T03:29:37.356Z,11.80
2018-04-29T03:32:06.365Z,11.20
2018-04-29T03:34:35.381Z,11.80
2018-04-29T03:37:03.611Z,11.80
2018-04-29T03:39:31.873Z,11.70
2018-04-29T03:42:00.105Z,11.60
2018-04-29T03:44:29.864Z,11.30
2018-04-29T03:46:58.089Z,11.30
2018-04-29T03:49:27.704Z,11.00
2018-04-29T03:51:56.732Z,10.90
2018-04-29T03:54:25.006Z,10.90
2018-04-29T03:56:53.212Z,11.20
2018-04-29T03:59:33.427Z,11.30
2018-04-29T04:02:14.124Z,11.20
2018-04-29T04:04:42.384Z,11.20
2018-04-29T04:07:10.652Z,11.40
2018-04-29T04:09:39.739Z,11.40
2018-04-29T04:12:07.906Z,11.30
2018-04-29T04:14:36.164Z,11.60
2018-04-29T04:17:04.977Z,11.70
2018-04-29T04:19:33.226Z,12.10
2018-04-29T04:22:01.459Z,11.80
2018-04-29T04:24:29.705Z,11.70
2018-04-29T04:26:57.932Z,11.90
2018-04-29T04:29:26.944Z,12.10
2018-04-29T04:31:55.176Z,12.10
2018-04-29T04:34:23.433Z,11.90
2018-04-29T04:36:51.658Z,11.90
2018-04-29T04:39:19.907Z,12.10
2018-04-29T04:41:48.159Z,11.80
2018-04-29T04:44:16.479Z,11.80
2018-04-29T04:46:44.700Z,11.90
2018-04-29T04:49:13.754Z,12.10
2018-04-29T04:51:42.036Z,12.10
2018-04-29T04:54:10.449Z,12.20
2018-04-29T04:56:38.700Z,12.00
2018-04-29T04:59:07.036Z,11.90
2018-04-29T05:01:35.296Z,11.80
2018-04-29T05:04:04.324Z,12.10
2018-04-29T05:06:32.564Z,12.10
2018-04-29T05:09:00.831Z,12.40
2018-04-29T05:11:29.064Z,12.40
2018-04-29T05:13:57.364Z,12.50
2018-04-29T05:16:26.222Z,12.50
2018-04-29T05:18:55.244Z,12.90
2018-04-29T05:21:23.489Z,12.80
2018-04-29T05:23:52.279Z,12.80
2018-04-29T05:26:20.560Z,12.90
2018-04-29T05:28:48.896Z,13.00
2018-04-29T05:31:17.174Z,13.20
2018-04-29T05:33:45.415Z,13.30
2018-04-29T05:36:14.463Z,13.30
2018-04-29T05:38:42.697Z,13.30
2018-04-29T05:41:11.741Z,13.40
2018-04-29T05:43:39.968Z,13.40
2018-04-29T05:46:08.208Z,13.60
2018-04-29T05:48:36.437Z,14.00
2018-04-29T05:51:05.445Z,14.20
2018-04-29T05:53:33.687Z,14.10
2018-04-29T05:56:01.928Z,14.30
2018-04-29T05:58:30.157Z,14.30
2018-04-29T06:00:59.432Z,14.50
2018-04-29T06:03:27.696Z,14.40
2018-04-29T06:05:55.938Z,14.30
2018-04-29T06:08:24.965Z,14.60
2018-04-29T06:10:53.235Z,14.60
2018-04-29T06:13:22.232Z,14.90
2018-04-29T06:15:51.345Z,15.10
2018-04-29T06:18:19.584Z,15.00
2018-04-29T06:20:47.849Z,15.10
2018-04-29T06:23:16.099Z,15.30
2018-04-29T06:25:44.372Z,15.30
2018-04-29T06:28:13.194Z,15.20
2018-04-29T06:30:41.468Z,15.20
2018-04-29T06:33:09.708Z,15.20
2018-04-29T06:35:38.832Z,15.60
2018-04-29T06:38:07.080Z,15.60
2018-04-29T06:40:36.109Z,15.80
2018-04-29T06:43:04.346Z,15.80
2018-04-29T06:45:33.242Z,16.00
2018-04-29T06:48:01.501Z,15.80
2018-04-29T06:50:31.274Z,16.00
2018-04-29T06:52:59.530Z,16.00
2018-04-29T06:55:28.579Z,15.90
2018-04-29T06:57:57.543Z,15.80
2018-04-29T07:00:26.546Z,16.20
2018-04-29T07:02:55.626Z,16.40
2018-04-29T07:05:24.623Z,16.60
2018-04-29T07:07:54.149Z,16.60
2018-04-29T07:10:23.610Z,16.60
2018-04-29T07:12:51.876Z,16.60
2018-04-29T07:15:20.205Z,16.60
2018-04-29T07:17:48.468Z,16.60
2018-04-29T07:20:16.709Z,16.80
2018-04-29T07:22:45.053Z,16.60
2018-04-29T07:25:14.537Z,16.40
2018-04-29T07:27:42.791Z,16.40
2018-04-29T07:30:11.051Z,16.30
2018-04-29T07:32:39.318Z,16.30
2018-04-29T07:35:08.607Z,15.90
2018-04-29T07:37:36.864Z,15.90
2018-04-29T07:40:05.115Z,15.90
2018-04-29T07:42:34.126Z,16.20
2018-04-29T07:45:02.396Z,16.10
2018-04-29T07:47:30.647Z,16.20
2018-04-29T07:49:59.687Z,16.10
2018-04-29T07:52:27.980Z,16.10
2018-04-29T07:54:56.253Z,16.20
2018-04-29T07:57:24.516Z,16.10
2018-04-29T07:59:52.761Z,16.00
2018-04-29T08:02:21.131Z,16.10
2018-04-29T08:04:49.372Z,16.30
2018-04-29T08:07:17.620Z,16.60
2018-04-29T08:09:46.652Z,17.40
2018-04-29T08:12:15.299Z,17.30
2018-04-29T08:14:44.308Z,18.20
2018-04-29T08:17:13.378Z,18.40
2018-04-29T08:19:41.604Z,18.40
2018-04-29T08:22:09.860Z,18.40
2018-04-29T08:24:38.862Z,18.60
2018-04-29T08:27:07.879Z,18.50
2018-04-29T08:29:36.149Z,18.50
2018-04-29T08:32:05.177Z,18.00
2018-04-29T08:34:33.459Z,18.00
2018-04-29T08:37:01.726Z,18.10
2018-04-29T08:39:29.975Z,17.90
2018-04-29T08:41:59.071Z,17.60
2018-04-29T08:44:27.297Z,17.60
2018-04-29T08:46:55.565Z,17.20
2018-04-29T08:49:23.970Z,17.00
2018-04-29T08:51:53.681Z,17.00
2018-04-29T08:54:22.682Z,17.00
2018-04-29T08:56:50.999Z,16.80
2018-04-29T08:59:19.223Z,16.80
2018-04-29T09:01:47.489Z,16.90
2018-04-29T09:04:16.500Z,16.80
2018-04-29T09:06:44.771Z,16.80
2018-04-29T09:09:13.820Z,16.90
2018-04-29T09:11:42.056Z,16.80
2018-04-29T09:14:10.344Z,16.50
2018-04-29T09:16:38.584Z,16.40
2018-04-29T09:19:06.863Z,16.40
2018-04-29T09:21:35.199Z,16.60
2018-04-29T09:24:03.444Z,16.80
2018-04-29T09:26:32.438Z,17.00
2018-04-29T09:29:01.451Z,17.20
2018-04-29T09:31:30.468Z,17.30
2018-04-29T09:33:58.712Z,17.20
2018-04-29T09:36:26.961Z,17.60
2018-04-29T09:38:55.221Z,17.80
2018-04-29T09:41:23.788Z,18.00
2018-04-29T09:43:52.824Z,17.70
2018-04-29T09:46:21.085Z,17.60
2018-04-29T09:48:49.538Z,18.10
2018-04-29T09:51:17.767Z,18.40
2018-04-29T09:53:46.033Z,18.60
2018-04-29T09:56:14.880Z,18.80
2018-04-29T09:58:43.149Z,18.70
2018-04-29T10:01:18.204Z,18.90
2018-04-29T10:03:48.047Z,20.70
2018-04-29T10:06:16.287Z,20.70
2018-04-29T10:08:44.550Z,21.50
2018-04-29T10:11:12.795Z,22.40
2018-04-29T10:13:41.826Z,22.90
2018-04-29T10:16:10.072Z,23.30
2018-04-29T10:18:38.371Z,23.40
2018-04-29T10:21:06.634Z,23.60
2018-04-29T10:23:35.184Z,24.10
2018-04-29T10:26:04.016Z,24.70
2018-04-29T10:28:32.283Z,24.70
2018-04-29T10:31:01.577Z,25.00
2018-04-29T10:33:29.848Z,25.00
2018-04-29T10:35:58.186Z,25.30
2018-04-29T10:38:26.436Z,25.60
2018-04-29T10:40:55.448Z,25.10
2018-04-29T10:43:23.736Z,25.10
2018-04-29T10:45:51.975Z,24.70
2018-04-29T10:48:20.226Z,24.50
2018-04-29T10:50:48.565Z,24.70
2018-04-29T10:53:16.812Z,25.10
2018-04-29T10:55:45.053Z,25.20
2018-04-29T10:58:13.312Z,25.90
2018-04-29T11:00:42.318Z,26.50
2018-04-29T11:03:10.552Z,26.50
2018-04-29T11:05:38.937Z,26.60
2018-04-29T11:08:07.188Z,26.20
2018-04-29T11:10:35.484Z,26.00
2018-04-29T11:13:04.253Z,25.70
2018-04-29T11:15:32.525Z,25.30
2018-04-29T11:18:00.825Z,24.70
2018-04-29T11:20:29.068Z,24.70
2018-04-29T11:22:58.082Z,25.20
2018-04-29T11:25:26.438Z,25.20
2018-04-29T11:27:54.708Z,25.70
2018-04-29T11:30:22.999Z,25.90
2018-04-29T11:32:51.476Z,26.10
2018-04-29T11:35:19.737Z,26.10
2018-04-29T11:37:48.700Z,26.10
2018-04-29T11:40:17.071Z,25.70
2018-04-29T11:42:45.312Z,25.30
2018-04-29T11:45:13.596Z,24.80
2018-04-29T11:47:41.888Z,24.40
2018-04-29T11:50:10.105Z,24.10
2018-04-29T11:52:38.981Z,24.30
2018-04-29T11:55:08.630Z,24.80
2018-04-29T11:57:36.877Z,24.80
2018-04-29T12:00:05.726Z,24.70
2018-04-29T12:02:34.026Z,24.50
2018-04-29T12:05:02.968Z,24.00
2018-04-29T12:07:31.984Z,24.00
2018-04-29T12:10:00.248Z,23.90
2018-04-29T12:12:28.487Z,23.60
2018-04-29T12:14:56.756Z,23.40
2018-04-29T12:17:25.040Z,23.10
2018-04-29T12:19:53.288Z,22.90
2018-04-29T12:22:21.573Z,22.90
2018-04-29T12:24:50.343Z,23.00
2018-04-29T12:27:18.583Z,23.00
2018-04-29T12:29:47.582Z,23.50
2018-04-29T12:32:15.836Z,23.40
2018-04-29T12:34:44.101Z,24.10
2018-04-29T12:37:12.356Z,24.40
2018-04-29T12:39:40.628Z,24.70
2018-04-29T12:42:08.884Z,24.60
2018-04-29T12:44:37.126Z,24.40
2018-04-29T12:47:05.999Z,24.50
2018-04-29T12:49:34.243Z,25.00
2018-04-29T12:52:02.586Z,25.50
2018-04-29T12:54:30.823Z,25.20
2018-04-29T12:56:59.857Z,24.10
2018-04-29T12:59:28.202Z,24.10
2018-04-29T13:01:57.216Z,24.10
2018-04-29T13:04:25.473Z,24.10
2018-04-29T13:06:54.492Z,23.90
2018-04-29T13:09:22.744Z,23.90
2018-04-29T13:11:51.033Z,24.00
2018-04-29T13:14:20.032Z,24.00
2018-04-29T13:16:49.059Z,24.00
2018-04-29T13:19:17.300Z,23.90
2018-04-29T13:21:45.552Z,23.70
2018-04-29T13:24:13.779Z,23.40
2018-04-29T13:26:42.808Z,23.90
2018-04-29T13:29:11.057Z,23.90
2018-04-29T13:31:40.068Z,24.50
2018-04-29T13:34:08.335Z,24.50
2018-04-29T13:36:36.612Z,24.80
2018-04-29T13:39:04.866Z,25.40
2018-04-29T13:41:33.127Z,25.50
2018-04-29T13:44:01.385Z,25.70
2018-04-29T13:46:29.650Z,25.70
2018-04-29T13:48:58.648Z,26.50
2018-04-29T13:51:27.752Z,26.60
2018-04-29T13:53:56.780Z,26.80
2018-04-29T13:56:25.063Z,26.80
2018-04-29T13:58:53.343Z,26.90
2018-04-29T14:01:21.581Z,26.90
2018-04-29T14:03:50.601Z,26.70
2018-04-29T14:06:19.612Z,26.80
2018-04-29T14:08:48.340Z,26.80
2018-04-29T14:11:16.593Z,26.80
2018-04-29T14:13:45.463Z,26.80
2018-04-29T14:16:13.820Z,26.50
2018-04-29T14:18:42.845Z,26.60
2018-04-29T14:21:11.098Z,26.90
2018-04-29T14:23:39.355Z,27.00
2018-04-29T14:26:07.609Z,26.70
2018-04-29T14:28:35.846Z,26.40
2018-04-29T14:31:04.848Z,25.90
2018-04-29T14:33:33.876Z,25.50
2018-04-29T14:36:02.122Z,25.50
2018-04-29T14:38:30.382Z,25.30
2018-04-29T14:40:59.221Z,25.00
2018-04-29T14:43:27.469Z,24.60
2018-04-29T14:45:55.696Z,24.50
2018-04-29T14:48:23.991Z,24.20
2018-04-29T14:50:52.235Z,24.10
2018-04-29T14:53:21.248Z,23.70
2018-04-29T14:55:49.509Z,23.70
2018-04-29T14:58:17.747Z,23.60
2018-04-29T15:00:46.045Z,23.50
2018-04-29T15:03:14.323Z,23.30
2018-04-29T15:05:42.642Z,23.10
2018-04-29T15:08:11.655Z,23.00
2018-04-29T15:10:39.904Z,22.90
2018-04-29T15:13:08.220Z,22.90
2018-04-29T15:15:36.456Z,22.70
2018-04-29T15:18:04.733Z,22.50
2018-04-29T15:20:32.967Z,22.40
2018-04-29T15:23:01.312Z,22.30
2018-04-29T15:25:29.570Z,22.10
2018-04-29T15:27:57.835Z,22.10
2018-04-29T15:30:26.114Z,22.00
2018-04-29T15:32:54.384Z,21.80
2018-04-29T15:35:22.628Z,21.60
2018-04-29T15:37:52.402Z,21.40
2018-04-29T15:40:20.665Z,21.40
2018-04-29T15:42:49.773Z,21.30
2018-04-29T15:45:18.744Z,21.20
2018-04-29T15:47:47.743Z,21.10
2018-04-29T15:50:16.019Z,21.10
2018-04-29T15:52:45.852Z,21.10
2018-04-29T15:55:14.111Z,21.10
2018-04-29T15:57:43.136Z,21.00
2018-04-29T16:00:11.368Z,21.00
2018-04-29T16:02:39.633Z,21.10
2018-04-29T16:05:07.872Z,21.10
2018-04-29T16:07:36.126Z,21.10
2018-04-29T16:10:05.204Z,21.00
2018-04-29T16:12:33.508Z,21.00
2018-04-29T16:15:02.529Z,20.90
2018-04-29T16:17:30.756Z,20.90
2018-04-29T16:19:59.027Z,20.80
2018-04-29T16:22:27.264Z,20.80
2018-04-29T16:24:55.521Z,20.90
2018-04-29T16:27:23.796Z,20.90
2018-04-29T16:29:52.940Z,20.80
2018-04-29T16:32:21.189Z,20.90
2018-04-29T16:34:49.460Z,20.90
2018-04-29T16:37:17.700Z,20.90
2018-04-29T16:39:46.008Z,21.00
2018-04-29T16:42:14.276Z,21.00
2018-04-29T16:44:42.544Z,21.00
2018-04-29T16:47:10.791Z,21.00
2018-04-29T16:49:39.065Z,21.00
2018-04-29T16:52:08.082Z,21.10
2018-04-29T16:54:36.313Z,21.10
2018-04-29T16:57:04.555Z,21.20
2018-04-29T16:59:33.289Z,21.20
2018-04-29T17:02:01.549Z,21.20
2018-04-29T17:04:29.805Z,21.20
2018-04-29T17:06:58.041Z,21.20
2018-04-29T17:09:26.366Z,21.20
2018-04-29T17:11:54.894Z,21.20
2018-04-29T17:14:23.637Z,21.10
2018-04-29T17:16:52.688Z,21.10
2018-04-29T17:19:20.956Z,21.10
2018-04-29T17:21:49.204Z,21.00
2018-04-29T17:24:17.468Z,21.00
2018-04-29T17:26:45.718Z,21.00
2018-04-29T17:29:14.017Z,21.00
2018-04-29T17:31:42.718Z,21.00
2018-04-29T17:34:11.781Z,20.80
2018-04-29T17:36:40.015Z,20.80
2018-04-29T17:39:08.366Z,20.70
2018-04-29T17:41:36.658Z,20.70
2018-04-29T17:44:04.908Z,20.60
2018-04-29T17:46:33.160Z,20.50
2018-04-29T17:49:01.438Z,20.50
2018-04-29T17:51:29.735Z,20.50
2018-04-29T17:53:58.004Z,20.30
2018-04-29T17:56:26.281Z,20.10
2018-04-29T17:58:54.513Z,20.10
2018-04-29T18:01:22.866Z,20.00
2018-04-29T18:03:51.089Z,19.90
2018-04-29T18:06:20.159Z,19.70
2018-04-29T18:08:48.369Z,19.60
2018-04-29T18:11:17.382Z,19.60
2018-04-29T18:13:45.634Z,19.60
2018-04-29T18:16:14.090Z,19.50
2018-04-29T18:18:43.973Z,19.40
2018-04-29T18:21:12.257Z,19.40
2018-04-29T18:23:40.492Z,19.40
2018-04-29T18:26:08.715Z,19.30
2018-04-29T18:28:37.181Z,19.30
2018-04-29T18:31:05.445Z,19.30
2018-04-29T18:33:33.683Z,19.20
2018-04-29T18:36:01.908Z,19.20
2018-04-29T18:38:30.637Z,19.10
2018-04-29T18:41:00.257Z,19.20
2018-04-29T18:43:28.492Z,19.20
2018-04-29T18:45:56.770Z,19.10
2018-04-29T18:48:25.018Z,19.10
2018-04-29T18:50:53.469Z,19.00
2018-04-29T18:53:21.553Z,18.90
2018-04-29T18:55:49.895Z,18.80
2018-04-29T18:58:19.836Z,18.80
2018-04-29T19:00:48.182Z,18.80
2018-04-29T19:03:16.519Z,18.80
2018-04-29T19:05:47.356Z,18.70
2018-04-29T19:08:17.229Z,18.70
2018-04-29T19:10:45.501Z,18.70
2018-04-29T19:13:13.842Z,18.60
2018-04-29T19:15:42.117Z,18.70
2018-04-29T19:18:11.147Z,18.60
2018-04-29T19:20:39.439Z,18.60
2018-04-29T19:23:08.208Z,18.50
2018-04-29T19:25:36.467Z,18.50
2018-04-29T19:28:05.459Z,18.50
2018-04-29T19:30:34.501Z,18.40
2018-04-29T19:33:02.732Z,18.40
2018-04-29T19:35:32.036Z,18.50
2018-04-29T19:38:00.268Z,18.50
2018-04-29T19:40:28.516Z,18.50
2018-04-29T19:42:57.534Z,18.40
2018-04-29T19:45:26.384Z,18.40
2018-04-29T19:47:54.655Z,18.40
2018-04-29T19:50:22.913Z,18.40
2018-04-29T19:52:51.159Z,18.50
2018-04-29T19:55:19.426Z,18.50
2018-04-29T19:57:48.457Z,18.50
2018-04-29T20:00:16.680Z,18.40
2018-04-29T20:02:44.950Z,18.50
2018-04-29T20:05:13.176Z,18.50
2018-04-29T20:07:41.436Z,18.50
2018-04-29T20:10:09.679Z,18.50
2018-04-29T20:12:37.941Z,18.50
2018-04-29T20:15:06.184Z,18.50
2018-04-29T20:17:35.221Z,18.60
2018-04-29T20:20:03.506Z,18.50
2018-04-29T20:22:31.780Z,18.50
2018-04-29T20:25:00.740Z,18.40
2018-04-29T20:27:29.583Z,18.40
2018-04-29T20:29:57.875Z,18.30
2018-04-29T20:32:38.792Z,18.40
2018-04-29T20:35:07.039Z,18.30
2018-04-29T20:37:36.037Z,18.40
2018-04-29T20:40:04.284Z,18.30
2018-04-29T20:42:32.574Z,18.30
2018-04-29T20:45:00.865Z,18.30
2018-04-29T20:47:29.208Z,18.30
2018-04-29T20:49:58.240Z,18.40
2018-04-29T20:52:26.493Z,18.30
2018-04-29T20:54:54.814Z,18.40
2018-04-29T20:57:23.104Z,18.30
2018-04-29T20:59:51.359Z,18.30
2018-04-29T21:02:19.621Z,18.30
2018-04-29T21:04:48.738Z,18.30
2018-04-29T21:07:16.983Z,18.30
2018-04-29T21:09:45.997Z,18.10
2018-04-29T21:12:14.265Z,18.10
2018-04-29T21:14:42.503Z,18.10
2018-04-29T21:17:10.785Z,18.20
2018-04-29T21:19:39.002Z,18.20
2018-04-29T21:22:07.246Z,18.20
2018-04-29T21:24:35.494Z,18.10
2018-04-29T21:27:03.737Z,18.10
2018-04-29T21:29:31.986Z,18.00
2018-04-29T21:32:00.221Z,18.10
2018-04-29T21:34:28.475Z,18.10
2018-04-29T21:36:56.711Z,18.00
2018-04-29T21:39:24.992Z,18.00
2018-04-29T21:41:53.522Z,18.00
2018-04-29T21:44:21.782Z,18.00
2018-04-29T21:46:50.566Z,18.00
2018-04-29T21:49:18.809Z,18.00
2018-04-29T21:51:47.128Z,18.10
2018-04-29T21:54:16.798Z,18.10
2018-04-29T21:56:45.870Z,18.10
2018-04-29T21:59:14.124Z,18.10
2018-04-29T22:01:42.842Z,18.10
2018-04-29T22:04:11.147Z,18.00
2018-04-29T22:06:39.471Z,18.00
2018-04-29T22:09:08.504Z,17.90
2018-04-29T22:11:36.744Z,17.90
2018-04-29T22:14:05.000Z,18.00
2018-04-29T22:16:34.000Z,17.90
2018-04-29T22:19:02.265Z,17.80
2018-04-29T22:21:31.262Z,17.90
2018-04-29T22:24:00.314Z,17.90
2018-04-29T22:26:28.547Z,17.90
2018-04-29T22:28:57.548Z,17.90
2018-04-29T22:31:25.855Z,17.90
2018-04-29T22:33:54.145Z,17.90
2018-04-29T22:36:23.276Z,17.80
2018-04-29T22:38:51.548Z,17.80
2018-04-29T22:41:19.780Z,17.80
2018-04-29T22:43:48.810Z,17.80
2018-04-29T22:46:17.073Z,17.80
2018-04-29T22:48:45.311Z,17.80
2018-04-29T22:51:13.560Z,17.80
2018-04-29T22:53:41.884Z,17.80
2018-04-29T22:56:10.123Z,17.80
2018-04-29T22:58:38.448Z,17.80
2018-04-29T23:01:06.712Z,17.80
2018-04-29T23:03:34.988Z,17.70
2018-04-29T23:06:03.238Z,17.60
2018-04-29T23:08:31.472Z,17.70
2018-04-29T23:10:59.728Z,17.60
2018-04-29T23:13:28.573Z,17.80
2018-04-29T23:15:56.832Z,17.70
2018-04-29T23:18:26.840Z,17.70
2018-04-29T23:20:55.668Z,17.70
2018-04-29T23:23:23.924Z,17.60
2018-04-29T23:25:52.947Z,17.60
2018-04-29T23:28:21.184Z,17.50
2018-04-29T23:30:49.436Z,17.50
2018-04-29T23:33:17.721Z,17.50
2018-04-29T23:35:45.943Z,17.50
2018-04-29T23:38:14.210Z,17.50
2018-04-29T23:40:42.455Z,17.50
2018-04-29T23:43:10.692Z,17.60
2018-04-29T23:45:39.725Z,17.30
2018-04-29T23:48:07.982Z,17.30
2018-04-29T23:50:37.465Z,17.00
2018-04-29T23:53:05.716Z,17.00
2018-04-29T23:55:33.972Z,17.00
2018-04-29T23:58:02.223Z,17.00
